createdAt,value
2023-01-17T00:01:08.581Z,70.13
2023-01-17T00:04:03.061Z,65.72
2023-01-17T00:06:51.504Z,72.13
2023-01-17T00:09:38.078Z,67.65
2023-01-17T00:12:09.165Z,66.45
2023-01-17T00:14:35.993Z,69.75
2023-01-17T00:17:08.417Z,58.55
2023-01-17T00:19:56.230Z,66.13
2023-01-17T00:22:48.387Z,68.63
2023-01-17T00:25:43.910Z,65.00
2023-01-17T00:28:10.638Z,68.80
2023-01-17T00:30:43.434Z,54.70
2023-01-17T00:33:11.485Z,64.30
2023-01-17T00:35:42.401Z,68.20
2023-01-17T00:38:15.116Z,64.93
2023-01-17T00:40:58.690Z,62.20
2023-01-17T00:43:43.986Z,66.18
2023-01-17T00:49:34.923Z,61.53
2023-01-17T00:52:39.741Z,68.65
2023-01-17T00:55:30.228Z,69.88
2023-01-17T00:58:21.353Z,66.75
2023-01-17T01:01:29.430Z,67.68
2023-01-17T01:04:16.196Z,71.32
2023-01-17T01:07:07.469Z,73.80
2023-01-17T01:10:01.421Z,66.13
2023-01-17T01:12:49.597Z,56.65
2023-01-17T01:15:41.430Z,75.00
2023-01-17T01:18:37.514Z,63.70
2023-01-17T01:21:29.845Z,65.13
2023-01-17T01:24:15.268Z,65.55
2023-01-17T01:27:03.402Z,57.80
2023-01-17T01:30:03.833Z,62.92
2023-01-17T01:33:01.810Z,66.03
2023-01-17T01:35:33.756Z,68.22
2023-01-17T01:38:07.825Z,68.28
2023-01-17T01:40:51.327Z,64.63
2023-01-17T01:44:00.211Z,69.25
2023-01-17T01:46:57.806Z,64.55
2023-01-17T01:49:40.440Z,61.03
2023-01-17T01:52:14.535Z,67.63
2023-01-17T01:54:47.360Z,71.45
2023-01-17T01:57:23.399Z,68.55
2023-01-17T01:59:57.945Z,73.00
2023-01-17T02:02:25.059Z,68.13
2023-01-17T02:05:09.156Z,72.13
2023-01-17T02:07:48.670Z,69.68
2023-01-17T02:10:23.709Z,66.00
2023-01-17T02:12:53.057Z,69.00
2023-01-17T02:15:34.274Z,60.72
2023-01-17T02:18:26.073Z,73.03
2023-01-17T02:21:19.146Z,76.18
2023-01-17T02:26:57.440Z,70.20
2023-01-17T02:29:43.342Z,71.97
2023-01-17T02:32:35.473Z,68.88
2023-01-17T02:35:37.087Z,69.25
2023-01-17T02:38:54.924Z,71.00
2023-01-17T02:41:36.528Z,74.70
2023-01-17T02:44:09.932Z,75.65
2023-01-17T02:46:48.270Z,75.70
2023-01-17T02:49:23.158Z,72.85
2023-01-17T02:52:25.872Z,72.50
2023-01-17T02:55:08.017Z,78.30
2023-01-17T02:58:17.118Z,72.10
2023-01-17T03:01:09.639Z,72.30
2023-01-17T03:03:56.616Z,74.88
2023-01-17T03:06:40.294Z,64.30
2023-01-17T03:09:18.897Z,71.07
2023-01-17T03:11:53.121Z,74.00
2023-01-17T03:14:23.087Z,74.13
2023-01-17T03:16:53.554Z,69.90
2023-01-17T03:19:23.645Z,78.38
2023-01-17T03:22:14.683Z,78.50
2023-01-17T03:24:41.399Z,63.03
2023-01-17T03:27:26.361Z,73.85
2023-01-17T03:30:02.794Z,69.05
2023-01-17T03:32:35.543Z,75.88
2023-01-17T03:35:06.790Z,74.95
2023-01-17T03:37:40.428Z,70.80
2023-01-17T03:40:08.607Z,75.18
2023-01-17T03:42:35.750Z,69.70
2023-01-17T03:45:05.950Z,75.28
2023-01-17T03:47:36.500Z,71.80
2023-01-17T03:50:10.996Z,72.32
2023-01-17T03:52:38.549Z,75.15
2023-01-17T03:55:14.628Z,78.13
2023-01-17T03:57:44.437Z,76.13
2023-01-17T04:00:21.966Z,71.72
2023-01-17T04:02:48.880Z,69.82
2023-01-17T04:05:27.413Z,71.65
2023-01-17T04:08:00.271Z,78.90
2023-01-17T04:13:45.732Z,79.00
2023-01-17T04:16:16.620Z,57.90
2023-01-17T04:18:44.809Z,61.33
2023-01-17T04:21:12.612Z,75.35
2023-01-17T04:23:39.405Z,55.72
2023-01-17T04:26:20.489Z,68.63
2023-01-17T04:28:53.310Z,59.47
2023-01-17T04:31:23.591Z,65.72
2023-01-17T04:33:50.355Z,51.65
2023-01-17T04:36:22.683Z,52.13
2023-01-17T04:38:49.423Z,47.95
2023-01-17T04:41:49.803Z,47.10
2023-01-17T04:44:16.528Z,47.47
2023-01-17T04:46:43.304Z,51.35
2023-01-17T04:49:16.226Z,52.92
2023-01-17T04:51:49.105Z,63.03
2023-01-17T04:54:15.928Z,64.60
2023-01-17T04:56:49.314Z,50.75
2023-01-17T04:59:22.362Z,50.22
2023-01-17T05:01:49.695Z,51.67
2023-01-17T05:04:16.603Z,56.35
2023-01-17T05:06:46.595Z,49.25
2023-01-17T05:09:18.972Z,48.00
2023-01-17T05:12:07.348Z,51.38
2023-01-17T05:14:47.960Z,45.35
2023-01-17T05:17:14.681Z,62.72
2023-01-17T05:19:51.064Z,44.78
2023-01-17T05:22:35.445Z,48.05
2023-01-17T05:25:10.858Z,60.60
2023-01-17T05:27:37.692Z,61.67
2023-01-17T05:30:05.724Z,65.50
2023-01-17T05:32:42.559Z,60.13
2023-01-17T05:35:15.689Z,49.72
2023-01-17T05:37:58.717Z,50.15
2023-01-17T05:40:31.085Z,53.50
2023-01-17T05:42:59.417Z,52.28
2023-01-17T05:45:28.542Z,44.45
2023-01-17T05:47:59.908Z,48.03
2023-01-17T05:50:56.876Z,46.17
2023-01-17T05:53:41.821Z,50.28
2023-01-17T05:56:20.185Z,57.15
2023-01-17T05:58:46.882Z,55.00
2023-01-17T06:01:13.634Z,53.53
2023-01-17T06:03:43.268Z,46.13
2023-01-17T06:06:13.319Z,50.63
2023-01-17T06:08:40.087Z,45.33
2023-01-17T06:11:06.847Z,48.17
2023-01-17T06:13:33.911Z,47.95
2023-01-17T06:16:04.471Z,48.90
2023-01-17T06:18:31.867Z,51.90
2023-01-17T06:20:59.584Z,49.17
2023-01-17T06:23:44.007Z,51.60
2023-01-17T06:26:28.583Z,43.55
2023-01-17T06:28:58.361Z,52.38
2023-01-17T06:31:28.209Z,53.90
2023-01-17T06:33:55.461Z,52.40
2023-01-17T06:36:24.946Z,46.13
2023-01-17T06:39:00.436Z,46.85
2023-01-17T06:41:27.231Z,48.45
2023-01-17T06:43:54.871Z,45.83
2023-01-17T06:46:21.875Z,59.05
2023-01-17T06:49:17.066Z,46.40
2023-01-17T06:51:56.310Z,49.47
2023-01-17T06:54:23.018Z,47.83
2023-01-17T06:56:52.698Z,46.15
2023-01-17T06:59:19.323Z,48.45
2023-01-17T07:01:55.324Z,57.97
2023-01-17T07:04:23.394Z,53.85
2023-01-17T07:06:53.175Z,56.05
2023-01-17T07:09:24.491Z,54.25
2023-01-17T07:12:06.791Z,46.42
2023-01-17T07:14:42.250Z,69.53
2023-01-17T07:17:08.940Z,53.50
2023-01-17T07:19:48.875Z,50.70
2023-01-17T07:22:21.935Z,53.53
2023-01-17T07:24:48.770Z,48.95
2023-01-17T07:27:18.141Z,47.67
2023-01-17T07:29:51.153Z,57.78
2023-01-17T07:32:21.211Z,52.58
2023-01-17T07:34:51.176Z,54.17
2023-01-17T07:37:24.323Z,48.53
2023-01-17T07:39:58.957Z,60.60
2023-01-17T07:42:32.101Z,57.05
2023-01-17T07:45:03.934Z,61.15
2023-01-17T07:47:38.896Z,60.58
2023-01-17T07:50:09.432Z,51.50
2023-01-17T07:53:00.899Z,56.72
2023-01-17T07:55:48.566Z,47.70
2023-01-17T07:58:19.248Z,62.92
2023-01-17T08:03:42.216Z,62.80
2023-01-17T08:06:24.576Z,65.18
2023-01-17T08:09:07.633Z,62.45
2023-01-17T08:11:50.754Z,68.95
2023-01-17T08:14:25.534Z,62.28
2023-01-17T08:16:52.320Z,63.53
2023-01-17T08:19:19.488Z,56.40
2023-01-17T08:24:40.306Z,57.20
2023-01-17T08:27:16.103Z,59.25
2023-01-17T08:29:57.720Z,56.72
2023-01-17T08:32:31.256Z,60.58
2023-01-17T08:38:06.165Z,59.03
2023-01-17T08:40:33.082Z,55.15
2023-01-17T08:43:25.483Z,58.42
2023-01-17T08:46:00.485Z,56.92
2023-01-17T08:48:47.974Z,56.05
2023-01-17T08:51:21.670Z,54.60
2023-01-17T08:53:55.844Z,51.45
2023-01-17T08:56:38.618Z,60.75
2023-01-17T09:02:24.444Z,57.03
2023-01-17T09:04:52.340Z,55.72
2023-01-17T09:07:35.542Z,52.40
2023-01-17T09:10:26.000Z,55.17
2023-01-17T09:15:45.553Z,60.80
2023-01-17T09:18:18.361Z,59.67
2023-01-17T09:20:45.136Z,60.42
2023-01-17T09:23:12.276Z,60.40
2023-01-17T09:25:44.789Z,67.60
2023-01-17T09:30:46.066Z,62.30
2023-01-17T09:33:34.124Z,65.53
2023-01-17T09:36:19.309Z,63.58
2023-01-17T09:39:00.081Z,62.90
2023-01-17T09:42:18.797Z,62.97
2023-01-17T09:45:09.327Z,67.05
2023-01-17T09:47:50.798Z,65.38
2023-01-17T09:50:29.038Z,63.70
2023-01-17T09:53:25.959Z,67.05
2023-01-17T09:56:11.690Z,64.22
2023-01-17T10:01:25.438Z,62.65
2023-01-17T10:04:16.495Z,63.25
2023-01-17T10:07:36.302Z,60.88
2023-01-17T10:10:32.465Z,59.10
2023-01-17T10:13:49.163Z,51.92
2023-01-17T10:20:14.298Z,50.22
2023-01-17T10:26:25.007Z,51.35
2023-01-17T10:29:01.207Z,47.80
2023-01-17T10:31:34.308Z,44.63
2023-01-17T10:34:15.121Z,45.35
2023-01-17T10:36:46.298Z,45.03
2023-01-17T10:39:29.091Z,43.88
2023-01-17T10:42:27.591Z,39.70
2023-01-17T10:48:43.106Z,42.35
2023-01-17T10:51:37.301Z,44.13
2023-01-17T10:54:43.472Z,46.17
2023-01-17T10:57:29.308Z,38.40
2023-01-17T11:00:01.196Z,37.10
2023-01-17T11:02:37.992Z,38.00
2023-01-17T11:05:22.015Z,43.70
2023-01-17T11:08:24.515Z,42.40
2023-01-17T11:11:04.960Z,36.40
2023-01-17T11:13:38.710Z,36.97
2023-01-17T11:16:09.252Z,35.38
2023-01-17T11:18:54.280Z,41.22
2023-01-17T11:21:23.455Z,43.67
2023-01-17T11:24:09.066Z,38.75
2023-01-17T11:26:53.966Z,32.60
2023-01-17T11:29:37.527Z,35.40
2023-01-17T11:32:39.000Z,43.55
2023-01-17T11:35:48.122Z,46.53
2023-01-17T11:38:22.916Z,47.72
2023-01-17T11:41:16.450Z,54.75
2023-01-17T11:44:14.385Z,52.80
2023-01-17T11:46:41.070Z,47.60
2023-01-17T11:49:28.550Z,55.60
2023-01-17T11:52:08.097Z,59.63
2023-01-17T11:54:42.777Z,46.08
2023-01-17T11:57:32.984Z,55.63
2023-01-17T12:00:08.889Z,56.33
2023-01-17T12:02:51.086Z,53.42
2023-01-17T12:05:38.317Z,56.53
2023-01-17T12:08:19.721Z,56.08
2023-01-17T12:10:54.997Z,62.90
2023-01-17T12:17:11.727Z,57.03
2023-01-17T12:20:05.335Z,52.22
2023-01-17T12:23:02.925Z,52.47
2023-01-17T12:25:46.747Z,53.63
2023-01-17T12:28:24.802Z,53.45
2023-01-17T12:31:08.255Z,52.58
2023-01-17T12:33:55.031Z,49.83
2023-01-17T12:36:54.699Z,45.08
2023-01-17T12:39:27.183Z,38.67
2023-01-17T12:42:30.640Z,42.30
2023-01-17T12:45:05.295Z,40.25
2023-01-17T12:47:40.082Z,36.25
2023-01-17T12:50:38.806Z,29.67
2023-01-17T12:53:24.077Z,28.27
2023-01-17T12:56:29.758Z,28.92
2023-01-17T12:59:19.712Z,27.45
2023-01-17T13:01:58.898Z,24.00
2023-01-17T13:04:59.040Z,22.13
2023-01-17T13:07:48.989Z,18.23
2023-01-17T13:10:40.588Z,17.83
2023-01-17T13:13:28.488Z,18.40
2023-01-17T13:16:27.764Z,17.38
2023-01-17T13:19:18.843Z,14.52
2023-01-17T13:21:50.485Z,13.18
2023-01-17T13:24:49.913Z,12.43
2023-01-17T13:27:43.433Z,13.50
2023-01-17T13:30:18.925Z,14.25
2023-01-17T13:33:36.637Z,16.15
2023-01-17T13:36:34.649Z,13.07
2023-01-17T13:39:33.430Z,10.80
2023-01-17T13:42:30.773Z,12.75
2023-01-17T13:45:47.369Z,12.65
2023-01-17T13:48:20.819Z,11.52
2023-01-17T13:51:15.818Z,12.00
2023-01-17T13:54:15.417Z,11.15
2023-01-17T13:56:45.216Z,12.93
2023-01-17T13:59:32.255Z,13.48
2023-01-17T14:02:33.880Z,12.98
2023-01-17T14:05:10.129Z,12.25
2023-01-17T14:08:09.006Z,12.05
2023-01-17T14:10:52.129Z,10.82
2023-01-17T14:20:18.127Z,11.90
2023-01-17T14:26:16.688Z,9.57
2023-01-17T14:28:54.040Z,8.85
2023-01-17T14:31:24.331Z,10.32
2023-01-17T14:33:51.089Z,9.02
2023-01-17T14:36:28.209Z,8.05
2023-01-17T14:38:55.249Z,7.95
2023-01-17T14:41:26.494Z,7.38
2023-01-17T14:43:59.652Z,7.95
2023-01-17T14:46:35.660Z,10.15
2023-01-17T14:49:33.902Z,9.82
2023-01-17T14:52:02.868Z,8.90
2023-01-17T14:54:36.743Z,8.55
2023-01-17T14:57:28.126Z,9.50
2023-01-17T15:00:11.524Z,8.10
2023-01-17T15:03:02.388Z,11.00
2023-01-17T15:05:30.401Z,9.57
2023-01-17T15:08:06.706Z,10.82
2023-01-17T15:10:38.643Z,9.57
2023-01-17T15:13:10.930Z,9.57
2023-01-17T15:15:40.269Z,8.57
2023-01-17T15:18:31.576Z,8.98
2023-01-17T15:21:16.516Z,7.45
2023-01-17T15:23:49.404Z,6.65
2023-01-17T15:26:18.630Z,8.35
2023-01-17T15:32:05.847Z,10.23
2023-01-17T15:34:38.732Z,9.75
2023-01-17T15:38:04.126Z,10.95
2023-01-17T15:40:50.826Z,14.98
2023-01-17T15:43:35.987Z,11.30
2023-01-17T15:46:06.016Z,16.08
2023-01-17T15:48:44.837Z,16.30
2023-01-17T15:51:17.030Z,11.63
2023-01-17T15:53:44.400Z,15.32
2023-01-17T15:56:36.353Z,13.25
2023-01-17T15:59:29.515Z,15.85
2023-01-17T16:01:59.758Z,17.17
2023-01-17T16:04:45.590Z,18.30
2023-01-17T16:07:34.197Z,19.55
2023-01-17T16:10:23.388Z,15.10
2023-01-17T16:12:53.606Z,17.65
2023-01-17T16:15:20.807Z,18.75
2023-01-17T16:17:55.080Z,16.13
2023-01-17T16:20:41.615Z,17.17
2023-01-17T16:23:17.405Z,17.70
2023-01-17T16:25:47.951Z,19.77
2023-01-17T16:28:23.711Z,19.67
2023-01-17T16:30:59.391Z,21.83
2023-01-17T16:33:26.072Z,15.35
2023-01-17T16:35:54.583Z,16.17
2023-01-17T16:38:22.925Z,17.02
2023-01-17T16:40:56.244Z,14.77
2023-01-17T16:43:54.870Z,19.15
2023-01-17T16:49:19.099Z,17.50
2023-01-17T16:51:49.983Z,18.52
2023-01-17T16:54:28.841Z,16.33
2023-01-17T16:57:04.905Z,18.40
2023-01-17T16:59:50.339Z,15.65
2023-01-17T17:02:18.779Z,17.50
2023-01-17T17:04:48.603Z,17.85
2023-01-17T17:07:23.288Z,17.73
2023-01-17T17:09:54.326Z,17.10
2023-01-17T17:12:22.954Z,18.27
2023-01-17T17:17:37.091Z,17.75
2023-01-17T17:20:07.481Z,16.52
2023-01-17T17:22:34.218Z,18.88
2023-01-17T17:25:00.974Z,20.08
2023-01-17T17:27:30.686Z,21.65
2023-01-17T17:30:02.503Z,19.35
2023-01-17T17:32:30.363Z,19.25
2023-01-17T17:35:00.044Z,19.02
2023-01-17T17:38:12.175Z,18.85
2023-01-17T17:40:37.385Z,17.35
2023-01-17T17:43:09.887Z,15.05
2023-01-17T17:48:21.726Z,17.23
2023-01-17T17:51:12.056Z,16.48
2023-01-17T17:53:51.633Z,17.40
2023-01-17T17:56:29.338Z,17.95
2023-01-17T17:59:22.661Z,17.40
2023-01-17T18:01:52.269Z,22.88
2023-01-17T18:04:34.120Z,19.35
2023-01-17T18:07:02.478Z,14.20
2023-01-17T18:09:47.368Z,18.88
2023-01-17T18:12:20.241Z,19.30
2023-01-17T18:14:47.057Z,19.50
2023-01-17T18:17:19.090Z,20.02
2023-01-17T18:20:00.779Z,20.42
2023-01-17T18:22:29.052Z,20.67
2023-01-17T18:25:04.386Z,22.70
2023-01-17T18:27:33.331Z,18.80
2023-01-17T18:30:01.470Z,19.95
2023-01-17T18:32:47.759Z,21.80
2023-01-17T18:35:23.900Z,17.77
2023-01-17T18:38:00.160Z,18.63
2023-01-17T18:40:27.055Z,17.02
2023-01-17T18:43:00.086Z,18.85
2023-01-17T18:45:31.373Z,20.08
2023-01-17T18:48:13.516Z,19.67
2023-01-17T18:50:45.173Z,19.55
2023-01-17T18:53:22.992Z,21.27
2023-01-17T18:55:56.925Z,17.95
2023-01-17T18:58:25.312Z,17.60
2023-01-17T19:00:54.376Z,15.60
2023-01-17T19:03:31.057Z,19.27
2023-01-17T19:06:11.468Z,17.33
2023-01-17T19:08:51.955Z,21.02
2023-01-17T19:11:20.391Z,19.67
2023-01-17T19:13:50.240Z,21.77
2023-01-17T19:16:26.613Z,20.73
2023-01-17T19:19:04.023Z,21.80
2023-01-17T19:21:31.098Z,22.52
2023-01-17T19:24:04.473Z,21.33
2023-01-17T19:26:38.482Z,22.30
2023-01-17T19:29:09.364Z,22.52
2023-01-17T19:31:42.014Z,24.02
2023-01-17T19:34:18.960Z,22.42
2023-01-17T19:36:49.732Z,23.83
2023-01-17T19:39:20.667Z,23.17
2023-01-17T19:41:54.714Z,25.92
2023-01-17T19:44:21.637Z,22.25
2023-01-17T19:46:51.345Z,22.30
2023-01-17T19:49:28.909Z,20.13
2023-01-17T19:52:06.487Z,20.65
2023-01-17T19:54:40.037Z,23.10
2023-01-17T19:57:08.219Z,18.27
2023-01-17T19:59:38.264Z,22.35
2023-01-17T20:02:16.486Z,21.73
2023-01-17T20:05:13.714Z,23.17
2023-01-17T20:07:51.517Z,23.52
2023-01-17T20:10:34.227Z,19.85
2023-01-17T20:13:10.572Z,20.55
2023-01-17T20:15:53.210Z,19.70
2023-01-17T20:20:57.405Z,27.20
2023-01-17T20:23:24.370Z,21.38
2023-01-17T20:26:03.686Z,21.13
2023-01-17T20:29:00.850Z,22.00
2023-01-17T20:31:30.344Z,22.75
2023-01-17T20:33:58.202Z,17.60
2023-01-17T20:36:40.272Z,22.38
2023-01-17T20:39:12.531Z,21.98
2023-01-17T20:41:50.380Z,22.52
2023-01-17T20:44:31.572Z,22.00
2023-01-17T20:47:37.462Z,22.35
2023-01-17T20:50:10.935Z,24.25
2023-01-17T20:52:41.182Z,26.73
2023-01-17T20:55:11.828Z,22.48
2023-01-17T20:57:39.695Z,25.13
2023-01-17T21:00:15.964Z,26.85
2023-01-17T21:02:42.801Z,23.23
2023-01-17T21:05:20.303Z,25.45
2023-01-17T21:07:53.000Z,28.33
2023-01-17T21:10:22.865Z,26.60
2023-01-17T21:12:49.703Z,18.83
2023-01-17T21:15:25.880Z,22.00
2023-01-17T21:18:00.007Z,29.20
2023-01-17T21:20:34.908Z,21.52
2023-01-17T21:23:02.985Z,29.75
2023-01-17T21:25:31.529Z,28.58
2023-01-17T21:28:01.366Z,29.42
2023-01-17T21:30:29.398Z,21.70
2023-01-17T21:32:56.164Z,33.08
2023-01-17T21:35:23.013Z,25.85
2023-01-17T21:37:50.651Z,29.60
2023-01-17T21:40:38.665Z,32.88
2023-01-17T21:43:07.554Z,28.10
2023-01-17T21:45:44.371Z,31.50
2023-01-17T21:48:22.025Z,39.97
2023-01-17T21:51:00.768Z,33.70
2023-01-17T21:53:57.463Z,38.53
2023-01-17T21:56:55.539Z,37.38
2023-01-17T21:59:22.497Z,34.08
2023-01-17T22:01:56.700Z,33.70
2023-01-17T22:04:28.467Z,37.80
2023-01-17T22:06:55.361Z,38.67
2023-01-17T22:09:26.675Z,28.95
2023-01-17T22:11:58.334Z,36.88
2023-01-17T22:14:25.070Z,37.23
2023-01-17T22:16:53.384Z,24.45
2023-01-17T22:19:20.256Z,40.92
2023-01-17T22:22:07.388Z,37.95
2023-01-17T22:24:53.119Z,39.22
2023-01-17T22:27:37.442Z,41.08
2023-01-17T22:33:07.472Z,36.38
2023-01-17T22:35:48.302Z,39.15
2023-01-17T22:38:39.872Z,35.28
2023-01-17T22:41:33.053Z,38.28
2023-01-17T22:44:02.376Z,41.38
2023-01-17T22:49:46.203Z,39.80
2023-01-17T22:52:19.530Z,41.85
2023-01-17T22:55:04.166Z,43.85
2023-01-17T22:57:58.622Z,45.08
2023-01-17T23:00:40.507Z,43.45
2023-01-17T23:03:39.888Z,42.60
2023-01-17T23:06:47.902Z,41.75
2023-01-17T23:09:44.354Z,41.08
2023-01-17T23:12:29.530Z,31.00
2023-01-17T23:15:14.825Z,44.63
2023-01-17T23:18:03.219Z,39.38
2023-01-17T23:20:36.803Z,40.28
2023-01-17T23:23:17.993Z,43.33
2023-01-17T23:25:49.717Z,39.00
2023-01-17T23:28:21.030Z,41.93
2023-01-17T23:30:52.241Z,37.05
2023-01-17T23:33:29.608Z,40.08
2023-01-17T23:36:09.477Z,38.53
2023-01-17T23:38:45.265Z,44.28
2023-01-17T23:41:35.647Z,42.92
2023-01-17T23:44:21.752Z,42.05
2023-01-17T23:46:58.333Z,40.40
2023-01-17T23:49:25.757Z,43.40
2023-01-17T23:51:53.117Z,33.67
2023-01-17T23:54:35.639Z,38.92
2023-01-17T23:57:25.816Z,32.28
2023-01-17T23:59:56.036Z,32.42
